createdAt,value
2018-05-17T00:00:59.311Z,0.00
2018-05-17T00:01:59.238Z,0.00
2018-05-17T00:02:59.163Z,0.00
2018-05-17T00:03:59.090Z,0.00
2018-05-17T00:04:59.015Z,0.00
2018-05-17T00:05:58.941Z,0.00
2018-05-17T00:06:58.867Z,0.00
2018-05-17T00:07:58.793Z,0.00
2018-05-17T00:08:58.721Z,0.00
2018-05-17T00:09:58.644Z,0.00
2018-05-17T00:10:58.571Z,0.00
2018-05-17T00:11:58.496Z,0.00
2018-05-17T00:12:58.422Z,0.00
2018-05-17T00:13:58.348Z,0.00
2018-05-17T00:14:58.274Z,0.00
2018-05-17T00:15:58.206Z,0.00
2018-05-17T00:16:58.125Z,0.00
2018-05-17T00:17:58.050Z,0.00
2018-05-17T00:18:57.976Z,0.00
2018-05-17T00:19:57.904Z,0.00
2018-05-17T00:20:57.828Z,0.00
2018-05-17T00:21:57.755Z,0.00
2018-05-17T00:22:57.679Z,0.00
2018-05-17T00:23:57.606Z,0.00
2018-05-17T00:24:57.533Z,0.00
2018-05-17T00:25:57.458Z,0.00
2018-05-17T00:26:57.384Z,0.00
2018-05-17T00:27:57.310Z,0.00
2018-05-17T00:28:57.235Z,0.00
2018-05-17T00:29:57.160Z,0.00
2018-05-17T00:30:57.088Z,0.00
2018-05-17T00:31:57.013Z,0.00
2018-05-17T00:32:56.939Z,0.00
2018-05-17T00:33:56.862Z,0.00
2018-05-17T00:34:56.790Z,0.00
2018-05-17T00:35:56.716Z,0.00
2018-05-17T00:36:56.642Z,0.00
2018-05-17T00:37:56.571Z,0.00
2018-05-17T00:38:56.492Z,0.00
2018-05-17T00:39:56.419Z,0.00
2018-05-17T00:40:56.345Z,0.00
2018-05-17T00:41:56.269Z,0.00
2018-05-17T00:42:56.196Z,0.00
2018-05-17T00:43:56.121Z,0.00
2018-05-17T00:44:56.055Z,0.00
2018-05-17T00:45:55.973Z,0.00
2018-05-17T00:46:55.898Z,0.00
2018-05-17T00:47:55.825Z,0.00
2018-05-17T00:48:55.752Z,0.00
2018-05-17T00:49:55.675Z,0.00
2018-05-17T00:50:55.601Z,0.00
2018-05-17T00:51:55.527Z,0.00
2018-05-17T00:52:55.455Z,0.00
2018-05-17T00:53:55.384Z,0.00
2018-05-17T00:54:55.305Z,0.00
2018-05-17T00:55:55.232Z,0.00
2018-05-17T00:56:55.158Z,0.00
2018-05-17T00:57:55.082Z,0.00
2018-05-17T00:58:55.009Z,0.00
2018-05-17T00:59:54.936Z,0.00
2018-05-17T01:00:54.860Z,0.00
2018-05-17T01:01:54.786Z,0.00
2018-05-17T01:02:54.712Z,0.00
2018-05-17T01:03:54.647Z,0.00
2018-05-17T01:04:54.564Z,0.00
2018-05-17T01:05:54.490Z,0.00
2018-05-17T01:06:54.416Z,0.00
2018-05-17T01:07:54.342Z,0.00
2018-05-17T01:08:54.268Z,0.00
2018-05-17T01:09:54.195Z,0.00
2018-05-17T01:10:54.125Z,0.00
2018-05-17T01:11:54.045Z,0.00
2018-05-17T01:12:53.973Z,0.00
2018-05-17T01:13:53.897Z,0.00
2018-05-17T01:14:53.825Z,0.00
2018-05-17T01:15:53.755Z,0.00
2018-05-17T01:16:53.676Z,0.00
2018-05-17T01:17:53.603Z,0.00
2018-05-17T01:18:53.526Z,0.00
2018-05-17T01:19:53.454Z,0.00
2018-05-17T01:20:53.381Z,0.00
2018-05-17T01:21:53.303Z,0.00
2018-05-17T01:22:53.232Z,0.00
2018-05-17T01:23:53.157Z,0.00
2018-05-17T01:24:53.083Z,0.00
2018-05-17T01:25:53.008Z,0.00
2018-05-17T01:26:52.934Z,0.00
2018-05-17T01:27:52.861Z,0.00
2018-05-17T01:28:52.787Z,0.00
2018-05-17T01:29:52.713Z,0.00
2018-05-17T01:30:52.638Z,0.00
2018-05-17T01:31:52.564Z,0.00
2018-05-17T01:32:52.493Z,0.00
2018-05-17T01:33:52.416Z,0.00
2018-05-17T01:34:52.341Z,0.00
2018-05-17T01:35:52.267Z,0.00
2018-05-17T01:36:52.193Z,0.00
2018-05-17T01:37:52.120Z,0.00
2018-05-17T01:38:52.050Z,0.00
2018-05-17T01:39:51.971Z,0.00
2018-05-17T01:40:51.897Z,0.00
2018-05-17T01:41:51.823Z,0.00
2018-05-17T01:42:51.749Z,0.00
2018-05-17T01:43:51.675Z,0.00
2018-05-17T01:44:51.602Z,0.00
2018-05-17T01:45:51.525Z,0.00
2018-05-17T01:46:51.453Z,0.00
2018-05-17T01:47:51.376Z,0.00
2018-05-17T01:48:51.303Z,0.00
2018-05-17T01:49:51.233Z,0.00
2018-05-17T01:50:51.157Z,0.00
2018-05-17T01:51:51.081Z,0.00
2018-05-17T01:52:51.007Z,0.00
2018-05-17T01:53:50.933Z,0.00
2018-05-17T01:54:50.861Z,0.00
2018-05-17T01:55:50.787Z,0.00
2018-05-17T01:56:50.711Z,0.00
2018-05-17T01:57:50.636Z,0.00
2018-05-17T01:58:50.565Z,0.00
2018-05-17T01:59:50.488Z,0.00
2018-05-17T02:00:50.415Z,0.00
2018-05-17T02:01:50.340Z,0.00
2018-05-17T02:02:50.268Z,0.00
2018-05-17T02:03:50.192Z,0.00
2018-05-17T02:04:50.118Z,0.00
2018-05-17T02:05:50.044Z,0.00
2018-05-17T02:06:49.970Z,0.00
2018-05-17T02:07:49.896Z,0.00
2018-05-17T02:08:49.823Z,0.00
2018-05-17T02:09:49.747Z,0.00
2018-05-17T02:10:49.673Z,0.00
2018-05-17T02:11:49.598Z,0.00
2018-05-17T02:12:49.524Z,0.00
2018-05-17T02:13:49.452Z,0.00
2018-05-17T02:14:49.380Z,0.00
2018-05-17T02:15:49.302Z,0.00
2018-05-17T02:16:49.229Z,0.00
2018-05-17T02:17:49.154Z,0.00
2018-05-17T02:18:49.080Z,0.00
2018-05-17T02:19:49.007Z,0.00
2018-05-17T02:20:48.934Z,0.00
2018-05-17T02:21:48.858Z,0.00
2018-05-17T02:22:48.784Z,0.00
2018-05-17T02:23:48.710Z,0.00
2018-05-17T02:24:48.636Z,0.00
2018-05-17T02:25:48.562Z,0.00
2018-05-17T02:26:48.488Z,0.00
2018-05-17T02:27:48.414Z,0.00
2018-05-17T02:28:48.340Z,0.00
2018-05-17T02:29:48.266Z,0.00
2018-05-17T02:30:48.192Z,0.00
2018-05-17T02:31:48.118Z,0.00
2018-05-17T02:32:48.044Z,0.00
2018-05-17T02:33:47.970Z,0.00
2018-05-17T02:34:47.896Z,0.00
2018-05-17T02:35:47.825Z,0.00
2018-05-17T02:36:47.748Z,0.00
2018-05-17T02:37:47.674Z,0.00
2018-05-17T02:38:47.604Z,0.00
2018-05-17T02:39:47.526Z,0.00
2018-05-17T02:40:47.453Z,0.00
2018-05-17T02:41:47.378Z,0.00
2018-05-17T02:42:47.304Z,0.00
2018-05-17T02:43:47.230Z,0.00
2018-05-17T02:44:47.157Z,0.00
2018-05-17T02:45:47.083Z,0.00
2018-05-17T02:46:47.009Z,0.00
2018-05-17T02:47:46.934Z,0.00
2018-05-17T02:48:46.862Z,0.00
2018-05-17T02:49:46.787Z,0.00
2018-05-17T02:50:46.714Z,0.00
2018-05-17T02:51:46.640Z,0.00
2018-05-17T02:52:46.566Z,0.00
2018-05-17T02:53:46.494Z,0.00
2018-05-17T02:54:46.419Z,0.00
2018-05-17T02:55:46.347Z,0.00
2018-05-17T02:56:46.270Z,0.00
2018-05-17T02:57:46.201Z,0.00
2018-05-17T02:58:46.129Z,0.00
2018-05-17T02:59:46.049Z,0.00
2018-05-17T03:00:45.976Z,0.00
2018-05-17T03:01:45.902Z,0.00
2018-05-17T03:02:45.828Z,0.00
2018-05-17T03:03:45.753Z,0.00
2018-05-17T03:04:45.680Z,0.00
2018-05-17T03:05:45.605Z,0.00
2018-05-17T03:06:45.536Z,0.00
2018-05-17T03:07:45.460Z,0.00
2018-05-17T03:08:45.385Z,0.00
2018-05-17T03:09:45.310Z,0.00
2018-05-17T03:10:45.240Z,0.00
2018-05-17T03:11:45.162Z,0.00
2018-05-17T03:12:45.093Z,0.00
2018-05-17T03:13:45.021Z,0.00
2018-05-17T03:14:44.941Z,0.00
2018-05-17T03:15:44.870Z,0.00
2018-05-17T03:16:44.804Z,0.00
2018-05-17T03:17:44.719Z,0.00
2018-05-17T03:18:44.645Z,0.00
2018-05-17T03:19:44.573Z,0.00
2018-05-17T03:20:44.499Z,0.00
2018-05-17T03:21:44.424Z,4.00
2018-05-17T03:22:44.350Z,4.00
2018-05-17T03:23:44.277Z,4.00
2018-05-17T03:24:44.206Z,4.00
2018-05-17T03:25:44.131Z,4.00
2018-05-17T03:26:44.056Z,4.00
2018-05-17T03:27:43.982Z,4.00
2018-05-17T03:28:43.912Z,4.00
2018-05-17T03:29:43.834Z,4.00
2018-05-17T03:30:43.760Z,4.00
2018-05-17T03:31:43.686Z,4.00
2018-05-17T03:32:43.615Z,4.00
2018-05-17T03:33:43.543Z,4.00
2018-05-17T03:34:43.464Z,8.00
2018-05-17T03:35:43.391Z,8.00
2018-05-17T03:36:43.318Z,8.00
2018-05-17T03:37:43.243Z,8.00
2018-05-17T03:38:43.172Z,8.00
2018-05-17T03:39:43.100Z,12.00
2018-05-17T03:40:43.023Z,12.00
2018-05-17T03:41:42.947Z,16.00
2018-05-17T03:42:42.873Z,24.00
2018-05-17T03:43:42.800Z,28.00
2018-05-17T03:44:42.726Z,24.00
2018-05-17T03:45:42.653Z,28.00
2018-05-17T03:46:42.578Z,28.00
2018-05-17T03:47:42.504Z,36.00
2018-05-17T03:48:42.431Z,40.00
2018-05-17T03:49:42.356Z,36.00
2018-05-17T03:50:42.282Z,36.00
2018-05-17T03:51:42.216Z,44.00
2018-05-17T03:52:42.134Z,52.00
2018-05-17T03:53:42.060Z,52.00
2018-05-17T03:54:41.987Z,64.00
2018-05-17T03:55:41.913Z,88.00
2018-05-17T03:56:41.840Z,84.00
2018-05-17T03:57:41.768Z,68.00
2018-05-17T03:58:41.691Z,88.00
2018-05-17T03:59:41.618Z,108.00
2018-05-17T04:00:41.543Z,136.00
2018-05-17T04:01:41.469Z,144.00
2018-05-17T04:02:41.399Z,140.00
2018-05-17T04:03:41.324Z,120.00
2018-05-17T04:04:41.249Z,128.00
2018-05-17T04:05:41.175Z,140.00
2018-05-17T04:06:41.106Z,140.00
2018-05-17T04:07:41.027Z,136.00
2018-05-17T04:08:40.957Z,136.00
2018-05-17T04:09:40.879Z,128.00
2018-05-17T04:10:40.805Z,176.00
2018-05-17T04:11:40.741Z,196.00
2018-05-17T04:12:40.658Z,168.00
2018-05-17T04:13:40.584Z,196.00
2018-05-17T04:14:40.510Z,256.00
2018-05-17T04:15:40.437Z,288.00
2018-05-17T04:16:40.364Z,332.00
2018-05-17T04:17:40.288Z,372.00
2018-05-17T04:18:40.214Z,384.00
2018-05-17T04:19:40.140Z,388.00
2018-05-17T04:20:40.067Z,428.00
2018-05-17T04:21:39.993Z,424.00
2018-05-17T04:22:39.919Z,388.00
2018-05-17T04:23:39.845Z,360.00
2018-05-17T04:24:39.773Z,296.00
2018-05-17T04:25:39.697Z,260.00
2018-05-17T04:26:39.623Z,308.00
2018-05-17T04:27:39.549Z,380.00
2018-05-17T04:28:39.475Z,360.00
2018-05-17T04:29:39.401Z,340.00
2018-05-17T04:30:39.328Z,308.00
2018-05-17T04:31:39.253Z,328.00
2018-05-17T04:32:39.180Z,404.00
2018-05-17T04:33:39.105Z,368.00
2018-05-17T04:34:39.030Z,320.00
2018-05-17T04:35:38.957Z,348.00
2018-05-17T04:36:38.883Z,408.00
2018-05-17T04:37:38.808Z,384.00
2018-05-17T04:38:38.733Z,344.00
2018-05-17T04:39:38.662Z,288.00
2018-05-17T04:40:38.586Z,292.00
2018-05-17T04:41:38.511Z,240.00
2018-05-17T04:42:38.439Z,220.00
2018-05-17T04:43:38.363Z,220.00
2018-05-17T04:44:38.290Z,256.00
2018-05-17T04:45:38.215Z,244.00
2018-05-17T04:46:38.141Z,228.00
2018-05-17T04:47:38.078Z,204.00
2018-05-17T04:48:37.994Z,232.00
2018-05-17T04:49:37.918Z,332.00
2018-05-17T04:50:37.844Z,436.00
2018-05-17T04:51:37.770Z,468.00
2018-05-17T04:52:37.696Z,484.00
2018-05-17T04:53:37.621Z,560.00
2018-05-17T04:54:37.547Z,696.00
2018-05-17T04:55:37.472Z,696.00
2018-05-17T04:56:37.398Z,616.00
2018-05-17T04:57:37.323Z,524.00
2018-05-17T04:58:37.250Z,456.00
2018-05-17T04:59:37.176Z,348.00
2018-05-17T05:00:37.101Z,276.00
2018-05-17T05:01:37.028Z,284.00
2018-05-17T05:02:37.021Z,332.00
2018-05-17T05:03:36.877Z,476.00
2018-05-17T05:04:36.808Z,500.00
2018-05-17T05:05:36.728Z,560.00
2018-05-17T05:06:36.658Z,608.00
2018-05-17T05:07:36.584Z,860.00
2018-05-17T05:08:36.507Z,900.00
2018-05-17T05:09:36.431Z,976.00
2018-05-17T05:10:36.359Z,1116.00
2018-05-17T05:11:36.294Z,976.00
2018-05-17T05:12:36.216Z,1016.00
2018-05-17T05:13:36.132Z,1200.00
2018-05-17T05:14:36.062Z,1248.00
2018-05-17T05:15:35.984Z,1244.00
2018-05-17T05:16:35.912Z,1268.00
2018-05-17T05:17:35.835Z,1224.00
2018-05-17T05:18:35.762Z,1276.00
2018-05-17T05:19:35.698Z,1240.00
2018-05-17T05:20:35.612Z,1428.00
2018-05-17T05:21:35.538Z,1440.00
2018-05-17T05:22:35.463Z,1272.00
2018-05-17T05:23:35.390Z,1164.00
2018-05-17T05:24:35.318Z,1008.00
2018-05-17T05:25:35.277Z,1032.00
2018-05-17T05:26:35.166Z,1000.00
2018-05-17T05:27:35.093Z,820.00
2018-05-17T05:28:35.017Z,776.00
2018-05-17T05:29:34.942Z,784.00
2018-05-17T05:30:34.868Z,920.00
2018-05-17T05:31:34.803Z,1020.00
2018-05-17T05:32:34.719Z,876.00
2018-05-17T05:33:34.645Z,1196.00
2018-05-17T05:34:34.570Z,1236.00
2018-05-17T05:35:34.496Z,992.00
2018-05-17T05:36:34.422Z,1044.00
2018-05-17T05:37:34.454Z,1288.00
2018-05-17T05:38:34.271Z,1132.00
2018-05-17T05:39:34.199Z,1032.00
2018-05-17T05:40:34.125Z,1304.00
2018-05-17T05:41:34.048Z,1740.00
2018-05-17T05:42:33.976Z,1956.00
2018-05-17T05:43:33.901Z,1892.00
2018-05-17T05:44:33.826Z,1520.00
2018-05-17T05:45:33.751Z,1916.00
2018-05-17T05:46:33.683Z,1748.00
2018-05-17T05:47:33.604Z,1768.00
2018-05-17T05:48:33.533Z,1604.00
2018-05-17T05:49:33.465Z,1892.00
2018-05-17T05:50:33.381Z,2316.00
2018-05-17T05:51:33.305Z,1716.00
2018-05-17T05:52:33.232Z,2084.00
2018-05-17T05:53:33.156Z,2140.00
2018-05-17T05:54:33.082Z,2228.00
2018-05-17T05:55:33.009Z,2580.00
2018-05-17T05:56:32.934Z,2272.00
2018-05-17T05:57:32.941Z,2256.00
2018-05-17T05:58:32.784Z,2548.00
2018-05-17T05:59:32.711Z,2672.00
2018-05-17T06:00:32.635Z,2472.00
2018-05-17T06:01:32.561Z,2560.00
2018-05-17T06:02:32.487Z,2176.00
2018-05-17T06:03:32.413Z,2952.00
2018-05-17T06:04:32.343Z,3104.00
2018-05-17T06:05:32.263Z,2916.00
2018-05-17T06:06:32.190Z,2180.00
2018-05-17T06:07:32.116Z,2136.00
2018-05-17T06:08:32.043Z,1864.00
2018-05-17T06:09:31.966Z,2072.00
2018-05-17T06:10:31.892Z,2408.00
2018-05-17T06:11:31.820Z,2088.00
2018-05-17T06:12:31.744Z,2872.00
2018-05-17T06:13:31.669Z,3320.00
2018-05-17T06:14:31.601Z,3292.00
2018-05-17T06:15:31.521Z,3244.00
2018-05-17T06:16:31.447Z,2664.00
2018-05-17T06:17:31.563Z,2612.00
2018-05-17T06:18:31.299Z,2448.00
2018-05-17T06:19:31.223Z,2260.00
2018-05-17T06:20:31.149Z,1868.00
2018-05-17T06:21:31.075Z,1576.00
2018-05-17T06:22:31.001Z,1772.00
2018-05-17T06:23:30.927Z,2008.00
2018-05-17T06:24:30.927Z,2232.00
2018-05-17T06:25:30.785Z,1904.00
2018-05-17T06:26:30.710Z,1732.00
2018-05-17T06:27:30.629Z,1312.00
2018-05-17T06:28:30.557Z,1196.00
2018-05-17T06:29:30.479Z,1024.00
2018-05-17T06:30:30.420Z,1012.00
2018-05-17T06:31:30.332Z,1184.00
2018-05-17T06:32:30.257Z,1144.00
2018-05-17T06:33:30.183Z,1412.00
2018-05-17T06:34:30.108Z,1716.00
2018-05-17T06:35:30.037Z,2164.00
2018-05-17T06:36:29.961Z,2300.00
2018-05-17T06:37:29.905Z,2080.00
2018-05-17T06:38:29.810Z,2148.00
2018-05-17T06:39:29.736Z,2556.00
2018-05-17T06:40:29.664Z,2568.00
2018-05-17T06:41:29.587Z,3864.00
2018-05-17T06:42:29.515Z,3872.00
2018-05-17T06:43:29.438Z,3836.00
2018-05-17T06:44:29.370Z,3960.00
2018-05-17T06:45:29.295Z,3936.00
2018-05-17T06:46:29.216Z,4572.00
2018-05-17T06:47:29.145Z,3516.00
2018-05-17T06:48:29.068Z,4224.00
2018-05-17T06:49:28.996Z,4544.00
2018-05-17T06:50:28.921Z,4332.00
2018-05-17T06:51:28.844Z,4932.00
2018-05-17T06:52:28.772Z,4200.00
2018-05-17T06:53:28.695Z,3152.00
2018-05-17T06:54:28.622Z,3120.00
2018-05-17T06:55:28.548Z,2888.00
2018-05-17T06:56:28.473Z,2580.00
2018-05-17T06:57:28.399Z,2172.00
2018-05-17T06:58:28.326Z,2700.00
2018-05-17T06:59:28.251Z,2452.00
2018-05-17T07:00:28.235Z,2388.00
2018-05-17T07:01:28.103Z,2604.00
2018-05-17T07:02:28.029Z,3008.00
2018-05-17T07:03:27.955Z,2172.00
2018-05-17T07:04:27.882Z,1796.00
2018-05-17T07:05:27.807Z,2232.00
2018-05-17T07:06:27.736Z,3068.00
2018-05-17T07:07:27.658Z,3448.00
2018-05-17T07:08:27.585Z,2308.00
2018-05-17T07:09:27.510Z,2372.00
2018-05-17T07:10:27.523Z,1892.00
2018-05-17T07:11:27.363Z,1556.00
2018-05-17T07:12:27.295Z,1808.00
2018-05-17T07:13:27.216Z,2088.00
2018-05-17T07:14:27.139Z,2832.00
2018-05-17T07:15:27.068Z,2932.00
2018-05-17T07:16:26.989Z,2932.00
2018-05-17T07:17:26.915Z,2892.00
2018-05-17T07:18:26.972Z,2736.00
2018-05-17T07:19:26.768Z,2768.00
2018-05-17T07:20:26.693Z,2612.00
2018-05-17T07:21:26.617Z,2488.00
2018-05-17T07:22:26.544Z,2240.00
2018-05-17T07:23:26.470Z,2484.00
2018-05-17T07:24:26.397Z,2912.00
2018-05-17T07:25:26.326Z,3848.00
2018-05-17T07:26:26.247Z,3976.00
2018-05-17T07:27:26.172Z,3392.00
2018-05-17T07:28:26.100Z,3508.00
2018-05-17T07:29:26.022Z,4280.00
2018-05-17T07:30:25.947Z,3916.00
2018-05-17T07:31:25.898Z,3216.00
2018-05-17T07:32:25.802Z,3436.00
2018-05-17T07:33:25.727Z,4056.00
2018-05-17T07:34:25.656Z,3444.00
2018-05-17T07:35:25.581Z,2592.00
2018-05-17T07:36:25.538Z,2516.00
2018-05-17T07:37:25.430Z,2564.00
2018-05-17T07:38:25.355Z,2264.00
2018-05-17T07:39:25.281Z,2404.00
2018-05-17T07:40:25.208Z,2560.00
2018-05-17T07:41:25.132Z,2972.00
2018-05-17T07:42:25.059Z,3880.00
2018-05-17T07:43:24.984Z,4136.00
2018-05-17T07:44:24.910Z,3960.00
2018-05-17T07:45:24.836Z,4180.00
2018-05-17T07:46:24.762Z,4432.00
2018-05-17T07:47:24.688Z,3900.00
2018-05-17T07:48:24.615Z,3820.00
2018-05-17T07:49:24.546Z,3928.00
2018-05-17T07:50:24.466Z,4760.00
2018-05-17T07:51:24.392Z,4488.00
2018-05-17T07:52:24.318Z,3496.00
2018-05-17T07:53:24.248Z,2820.00
2018-05-17T07:54:24.170Z,2664.00
2018-05-17T07:55:24.095Z,2544.00
2018-05-17T07:56:24.022Z,2600.00
2018-05-17T07:57:23.947Z,2660.00
2018-05-17T07:58:23.873Z,2616.00
2018-05-17T07:59:23.799Z,2572.00
2018-05-17T08:00:23.771Z,2776.00
2018-05-17T08:01:23.651Z,3140.00
2018-05-17T08:02:23.578Z,3068.00
2018-05-17T08:03:23.507Z,3192.00
2018-05-17T08:04:23.429Z,4132.00
2018-05-17T08:05:23.355Z,5288.00
2018-05-17T08:06:23.281Z,6300.00
2018-05-17T08:07:23.207Z,6632.00
2018-05-17T08:08:23.132Z,7664.00
2018-05-17T08:09:23.091Z,6676.00
2018-05-17T08:10:22.985Z,5792.00
2018-05-17T08:11:22.912Z,5720.00
2018-05-17T08:12:22.837Z,5388.00
2018-05-17T08:13:22.765Z,4792.00
2018-05-17T08:14:22.690Z,4112.00
2018-05-17T08:15:22.616Z,3364.00
2018-05-17T08:16:22.542Z,2644.00
2018-05-17T08:17:22.468Z,2760.00
2018-05-17T08:18:22.395Z,3272.00
2018-05-17T08:19:22.324Z,3320.00
2018-05-17T08:20:22.247Z,3244.00
2018-05-17T08:21:22.174Z,3256.00
2018-05-17T08:22:22.102Z,3528.00
2018-05-17T08:23:22.027Z,4116.00
2018-05-17T08:24:21.953Z,5372.00
2018-05-17T08:25:21.880Z,6068.00
2018-05-17T08:26:21.806Z,5640.00
2018-05-17T08:27:21.732Z,5044.00
2018-05-17T08:28:21.659Z,5876.00
2018-05-17T08:29:21.589Z,5924.00
2018-05-17T08:30:21.511Z,5912.00
2018-05-17T08:31:21.438Z,6888.00
2018-05-17T08:32:21.363Z,6968.00
2018-05-17T08:33:21.291Z,7472.00
2018-05-17T08:34:21.218Z,6776.00
2018-05-17T08:35:21.142Z,6988.00
2018-05-17T08:36:21.167Z,6820.00
2018-05-17T08:37:20.996Z,6732.00
2018-05-17T08:38:20.923Z,7420.00
2018-05-17T08:39:20.851Z,7832.00
2018-05-17T08:40:20.776Z,8304.00
2018-05-17T08:41:20.702Z,8400.00
2018-05-17T08:42:20.632Z,8364.00
2018-05-17T08:43:20.558Z,8336.00
2018-05-17T08:44:20.484Z,7944.00
2018-05-17T08:45:20.411Z,7432.00
2018-05-17T08:46:20.337Z,6764.00
2018-05-17T08:47:20.264Z,6112.00
2018-05-17T08:48:20.193Z,5996.00
2018-05-17T08:49:20.117Z,5840.00
2018-05-17T08:50:20.044Z,5760.00
2018-05-17T08:51:19.969Z,5812.00
2018-05-17T08:52:19.897Z,6876.00
2018-05-17T08:53:19.824Z,8152.00
2018-05-17T08:54:19.793Z,8948.00
2018-05-17T08:55:19.678Z,10012.00
2018-05-17T08:56:19.606Z,9340.00
2018-05-17T08:57:19.536Z,8852.00
2018-05-17T08:58:19.459Z,7352.00
2018-05-17T08:59:19.454Z,7992.00
2018-05-17T09:00:19.314Z,8752.00
2018-05-17T09:01:19.240Z,8536.00
2018-05-17T09:02:19.167Z,7928.00
2018-05-17T09:03:19.093Z,7912.00
2018-05-17T09:04:19.023Z,8384.00
2018-05-17T09:05:18.949Z,7740.00
2018-05-17T09:06:18.911Z,7404.00
2018-05-17T09:07:18.804Z,7548.00
2018-05-17T09:08:18.731Z,7684.00
2018-05-17T09:09:18.660Z,8652.00
2018-05-17T09:10:18.585Z,8700.00
2018-05-17T09:11:18.514Z,9064.00
2018-05-17T09:12:18.440Z,8360.00
2018-05-17T09:13:18.367Z,8172.00
2018-05-17T09:14:18.296Z,8020.00
2018-05-17T09:15:18.222Z,8272.00
2018-05-17T09:16:18.151Z,9196.00
2018-05-17T09:17:18.077Z,9136.00
2018-05-17T09:18:18.006Z,8576.00
2018-05-17T09:19:17.936Z,7156.00
2018-05-17T09:20:17.980Z,7440.00
2018-05-17T09:21:17.787Z,9272.00
2018-05-17T09:22:17.715Z,10308.00
2018-05-17T09:23:17.648Z,9676.00
2018-05-17T09:24:17.572Z,7856.00
2018-05-17T09:25:17.498Z,8160.00
2018-05-17T09:26:17.427Z,10052.00
2018-05-17T09:27:17.355Z,9932.00
2018-05-17T09:28:17.283Z,10320.00
2018-05-17T09:29:17.262Z,10240.00
2018-05-17T09:30:17.139Z,10272.00
2018-05-17T09:31:17.067Z,10640.00
2018-05-17T09:32:16.995Z,10288.00
2018-05-17T09:33:16.922Z,10136.00
2018-05-17T09:34:16.850Z,9868.00
2018-05-17T09:35:16.777Z,10176.00
2018-05-17T09:36:16.706Z,10400.00
2018-05-17T09:37:16.635Z,10844.00
2018-05-17T09:38:16.562Z,10768.00
2018-05-17T09:39:16.491Z,10836.00
2018-05-17T09:40:16.418Z,11652.00
2018-05-17T09:41:16.371Z,11180.00
2018-05-17T09:42:16.275Z,12248.00
2018-05-17T09:43:16.204Z,11976.00
2018-05-17T09:44:16.132Z,11144.00
2018-05-17T09:45:16.059Z,11144.00
2018-05-17T09:46:15.987Z,10348.00
2018-05-17T09:47:15.916Z,10556.00
2018-05-17T09:48:15.845Z,11236.00
2018-05-17T09:49:15.772Z,11036.00
2018-05-17T09:50:15.701Z,9324.00
2018-05-17T09:51:15.630Z,9324.00
2018-05-17T09:52:15.563Z,10120.00
2018-05-17T09:53:15.487Z,10152.00
2018-05-17T09:54:15.416Z,9104.00
2018-05-17T09:55:15.344Z,8608.00
2018-05-17T09:56:15.272Z,8364.00
2018-05-17T09:57:15.199Z,9212.00
2018-05-17T09:58:15.129Z,8948.00
2018-05-17T09:59:15.057Z,8056.00
2018-05-17T10:00:14.986Z,7596.00
2018-05-17T10:01:14.915Z,7476.00
2018-05-17T10:02:14.843Z,6940.00
2018-05-17T10:03:14.771Z,6268.00
2018-05-17T10:04:14.699Z,5644.00
2018-05-17T10:05:14.628Z,5548.00
2018-05-17T10:06:14.556Z,5852.00
2018-05-17T10:07:14.487Z,6308.00
2018-05-17T10:08:14.414Z,7516.00
2018-05-17T10:09:14.344Z,8772.00
2018-05-17T10:10:14.271Z,8660.00
2018-05-17T10:11:14.208Z,9016.00
2018-05-17T10:12:14.128Z,9340.00
2018-05-17T10:13:14.055Z,9156.00
2018-05-17T10:14:13.984Z,8972.00
2018-05-17T10:15:13.913Z,7528.00
2018-05-17T10:16:13.841Z,7252.00
2018-05-17T10:17:13.768Z,8736.00
2018-05-17T10:18:13.699Z,9284.00
2018-05-17T10:19:13.627Z,9176.00
2018-05-17T10:20:13.553Z,9264.00
2018-05-17T10:21:13.482Z,8632.00
2018-05-17T10:22:13.410Z,9292.00
2018-05-17T10:23:13.384Z,9500.00
2018-05-17T10:24:13.267Z,9012.00
2018-05-17T10:25:13.193Z,9224.00
2018-05-17T10:26:13.120Z,9256.00
2018-05-17T10:27:13.051Z,9896.00
2018-05-17T10:28:12.978Z,10784.00
2018-05-17T10:29:12.906Z,10452.00
2018-05-17T10:30:12.833Z,10152.00
2018-05-17T10:31:12.763Z,10604.00
2018-05-17T10:32:12.691Z,10368.00
2018-05-17T10:33:12.619Z,9988.00
2018-05-17T10:34:12.548Z,9504.00
2018-05-17T10:35:12.478Z,9476.00
2018-05-17T10:36:12.408Z,9412.00
2018-05-17T10:37:12.334Z,9348.00
2018-05-17T10:38:12.260Z,9584.00
2018-05-17T10:39:12.189Z,10128.00
2018-05-17T10:40:12.118Z,10828.00
2018-05-17T10:41:12.046Z,11036.00
2018-05-17T10:42:12.022Z,10744.00
2018-05-17T10:43:11.905Z,10768.00
2018-05-17T10:44:11.833Z,10512.00
2018-05-17T10:45:11.759Z,10108.00
2018-05-17T10:46:11.689Z,9736.00
2018-05-17T10:47:11.622Z,9616.00
2018-05-17T10:48:11.546Z,9468.00
2018-05-17T10:49:11.476Z,8760.00
2018-05-17T10:50:11.403Z,8096.00
2018-05-17T10:51:11.333Z,7560.00
2018-05-17T10:52:11.262Z,7112.00
2018-05-17T10:53:11.191Z,6748.00
2018-05-17T10:54:11.125Z,6464.00
2018-05-17T10:55:11.048Z,6300.00
2018-05-17T10:56:10.976Z,6296.00
2018-05-17T10:57:10.906Z,6644.00
2018-05-17T10:58:10.833Z,7272.00
2018-05-17T10:59:10.761Z,7576.00
2018-05-17T11:00:10.687Z,7748.00
2018-05-17T11:01:10.617Z,8652.00
2018-05-17T11:02:10.545Z,9312.00
2018-05-17T11:03:10.474Z,9476.00
2018-05-17T11:04:10.402Z,9556.00
2018-05-17T11:05:10.329Z,10104.00
2018-05-17T11:06:10.260Z,10724.00
2018-05-17T11:07:10.187Z,11320.00
2018-05-17T11:08:10.119Z,11140.00
2018-05-17T11:09:10.043Z,12688.00
2018-05-17T11:10:09.971Z,12560.00
2018-05-17T11:11:09.900Z,12892.00
2018-05-17T11:12:09.847Z,12812.00
2018-05-17T11:13:09.756Z,12164.00
2018-05-17T11:14:09.685Z,11708.00
2018-05-17T11:15:09.694Z,11796.00
2018-05-17T11:16:09.544Z,11236.00
2018-05-17T11:17:09.472Z,10736.00
2018-05-17T11:18:09.399Z,10508.00
2018-05-17T11:19:09.328Z,10420.00
2018-05-17T11:20:09.257Z,10168.00
2018-05-17T11:21:09.185Z,10376.00
2018-05-17T11:22:09.114Z,11284.00
2018-05-17T11:23:09.044Z,12008.00
2018-05-17T11:24:08.971Z,12344.00
2018-05-17T11:25:08.902Z,12836.00
2018-05-17T11:26:08.828Z,13000.00
2018-05-17T11:27:08.756Z,13452.00
2018-05-17T11:28:08.687Z,13720.00
2018-05-17T11:29:08.614Z,14336.00
2018-05-17T11:30:08.544Z,14692.00
2018-05-17T11:31:08.473Z,16480.00
2018-05-17T11:32:08.402Z,14980.00
2018-05-17T11:33:08.393Z,16704.00
2018-05-17T11:34:08.259Z,20512.00
2018-05-17T11:35:08.189Z,19936.00
2018-05-17T11:36:08.118Z,17408.00
2018-05-17T11:37:08.045Z,21248.00
2018-05-17T11:38:07.975Z,17824.00
2018-05-17T11:39:07.909Z,20736.00
2018-05-17T11:40:07.834Z,18688.00
2018-05-17T11:41:07.763Z,23200.00
2018-05-17T11:42:07.693Z,26016.00
2018-05-17T11:43:07.622Z,25280.00
2018-05-17T11:44:07.623Z,29024.00
2018-05-17T11:45:07.480Z,25536.00
2018-05-17T11:46:07.411Z,26272.00
2018-05-17T11:47:07.341Z,26080.00
2018-05-17T11:48:07.271Z,26912.00
2018-05-17T11:49:07.199Z,28832.00
2018-05-17T11:50:07.133Z,31264.00
2018-05-17T11:51:07.060Z,30272.00
2018-05-17T11:52:06.991Z,27680.00
2018-05-17T11:53:06.919Z,25440.00
2018-05-17T11:54:06.851Z,23648.00
2018-05-17T11:55:06.785Z,23968.00
2018-05-17T11:56:06.714Z,26976.00
2018-05-17T11:57:06.644Z,24928.00
2018-05-17T11:58:06.575Z,27488.00
2018-05-17T11:59:06.505Z,29088.00
2018-05-17T12:00:06.436Z,27680.00
2018-05-17T12:01:06.367Z,26016.00
2018-05-17T12:02:06.297Z,27968.00
2018-05-17T12:03:06.228Z,31008.00
2018-05-17T12:04:06.159Z,31328.00
2018-05-17T12:05:06.089Z,33568.00
2018-05-17T12:06:06.020Z,33792.00
2018-05-17T12:07:05.955Z,28864.00
2018-05-17T12:08:05.884Z,27648.00
2018-05-17T12:09:05.814Z,28448.00
2018-05-17T12:10:05.745Z,25216.00
2018-05-17T12:11:05.677Z,23648.00
2018-05-17T12:12:05.609Z,22464.00
2018-05-17T12:13:05.548Z,21280.00
2018-05-17T12:14:05.471Z,19776.00
2018-05-17T12:15:05.402Z,20480.00
2018-05-17T12:16:05.334Z,19136.00
2018-05-17T12:17:05.266Z,19360.00
2018-05-17T12:18:05.218Z,20096.00
2018-05-17T12:19:05.127Z,27680.00
2018-05-17T12:20:05.059Z,28640.00
2018-05-17T12:21:04.989Z,28544.00
2018-05-17T12:22:04.923Z,30784.00
2018-05-17T12:23:04.921Z,31968.00
2018-05-17T12:24:04.783Z,28800.00
2018-05-17T12:25:04.721Z,20416.00